Terminal Aerodrome Forecast
Issued by NWS St Louis, MO

Home | Current Version | Previous Version | Text Only | Print | Product List | Glossary On
Versions: 1 2 3 4 5 6 7 8 9 10 11 12 13
000
FTUS43 KLSX 271127
TAFCOU
TAF
KCOU 271127Z 2712/2812 14005KT 6SM BR SCT030 BKN120
     FM271400 20006KT P6SM SCT040 BKN120
     FM280100 VRB04KT P6SM SCT050 BKN250=

USA.gov is the U.S. government's official web portal to all federal, state and local government web resources and services.